RYR84KM EGGW-LEMI
Flight info
| Callsign | RYR84KM |
|---|---|
| Flight time | 2h 4m |
| Altitude | 36000 |
| Route | RODNI N27 ICTAM Q63 CPT N859 VAPID UN859 SOPIL DCT BALAN DCT LMG DCT PIMQO DCT AGN DCT ANETO DCT POSSY DCT XIMPE DCT RIMES N860 VLC L34 ALT |
| Aircraft | B738/M-SDE2E3FGHIRWXY/LB1 |
Departure
| Time | 2026-04-14 12:30 |
|---|---|
| Airport | London Luton Airport (EGGW) |
Arrival
| Time | 2026-04-14 14:34 |
|---|---|
| Airport | Region of Murcia International Airport (LEMI) |
| Time | Latitude | Longitude | Altitude | Speed | Heading |
|---|---|---|---|---|---|
| 2026-04-14 11:52 | 51.87929 | -0.37928 | 535 ft | 0 kts | 99° |
| 2026-04-14 12:15 | 51.87929 | -0.37931 | 536 ft | 2 kts | 99° |
| 2026-04-14 12:15 | 51.87937 | -0.37968 | 536 ft | 4 kts | 136° |
| 2026-04-14 12:16 | 51.87958 | -0.37990 | 536 ft | 3 kts | 159° |
| 2026-04-14 12:16 | 51.87961 | -0.37992 | 536 ft | 2 kts | 159° |
| 2026-04-14 12:19 | 51.87940 | -0.37990 | 536 ft | 10 kts | 188° |
| 2026-04-14 12:19 | 51.87865 | -0.37999 | 536 ft | 11 kts | 162° |
| 2026-04-14 12:20 | 51.87803 | -0.37916 | 536 ft | 15 kts | 122° |
| 2026-04-14 12:20 | 51.87753 | -0.37749 | 535 ft | 17 kts | 115° |
| 2026-04-14 12:20 | 51.87747 | -0.37729 | 535 ft | 0 kts | 115° |
| 2026-04-14 12:23 | 51.87739 | -0.37699 | 535 ft | 4 kts | 112° |
| 2026-04-14 12:23 | 51.87726 | -0.37649 | 535 ft | 10 kts | 114° |
| 2026-04-14 12:23 | 51.87673 | -0.37508 | 535 ft | 16 kts | 136° |
| 2026-04-14 12:24 | 51.87591 | -0.37396 | 534 ft | 15 kts | 123° |
| 2026-04-14 12:24 | 51.87585 | -0.37232 | 534 ft | 15 kts | 76° |
| 2026-04-14 12:24 | 51.87611 | -0.37075 | 534 ft | 14 kts | 75° |
| 2026-04-14 12:24 | 51.87639 | -0.36921 | 533 ft | 15 kts | 76° |
| 2026-04-14 12:25 | 51.87669 | -0.36744 | 533 ft | 17 kts | 75° |
| 2026-04-14 12:25 | 51.87701 | -0.36557 | 532 ft | 17 kts | 73° |
| 2026-04-14 12:25 | 51.87731 | -0.36380 | 532 ft | 16 kts | 75° |
| 2026-04-14 12:25 | 51.87761 | -0.36209 | 531 ft | 15 kts | 75° |
| 2026-04-14 12:26 | 51.87784 | -0.36044 | 531 ft | 15 kts | 92° |
| 2026-04-14 12:26 | 51.87743 | -0.35952 | 530 ft | 0 kts | 156° |
| 2026-04-14 12:27 | 51.87736 | -0.35947 | 530 ft | 5 kts | 156° |
| 2026-04-14 12:27 | 51.87674 | -0.35901 | 529 ft | 13 kts | 145° |
| 2026-04-14 12:28 | 51.87661 | -0.35755 | 527 ft | 16 kts | 74° |
| 2026-04-14 12:28 | 51.87697 | -0.35539 | 528 ft | 23 kts | 72° |
| 2026-04-14 12:28 | 51.87720 | -0.35360 | 529 ft | 7 kts | 209° |
| 2026-04-14 12:28 | 51.87705 | -0.35434 | 529 ft | 7 kts | 257° |
| 2026-04-14 12:29 | 51.87692 | -0.35515 | 528 ft | 23 kts | 255° |
| 2026-04-14 12:29 | 51.87590 | -0.36111 | 529 ft | 103 kts | 254° |
| 2026-04-14 12:29 | 51.87386 | -0.37236 | 539 ft | 161 kts | 246° |
| 2026-04-14 12:29 | 51.87298 | -0.37772 | 671 ft | 171 kts | 254° |
| 2026-04-14 12:30 | 51.87221 | -0.38387 | 873 ft | 177 kts | 255° |
| 2026-04-14 12:30 | 51.87069 | -0.39918 | 1309 ft | 203 kts | 257° |
| 2026-04-14 12:30 | 51.86700 | -0.42610 | 2377 ft | 208 kts | 245° |
| 2026-04-14 12:30 | 51.85946 | -0.44405 | 2969 ft | 211 kts | 214° |
| 2026-04-14 12:31 | 51.84711 | -0.45391 | 3234 ft | 232 kts | 200° |
| 2026-04-14 12:31 | 51.83289 | -0.46446 | 3988 ft | 239 kts | 206° |
| 2026-04-14 12:31 | 51.81770 | -0.47597 | 4698 ft | 242 kts | 201° |
| 2026-04-14 12:31 | 51.80324 | -0.48994 | 4973 ft | 245 kts | 228° |
| 2026-04-14 12:32 | 51.79700 | -0.51149 | 4993 ft | 253 kts | 259° |
| 2026-04-14 12:32 | 51.79603 | -0.53884 | 5016 ft | 255 kts | 261° |
| 2026-04-14 12:32 | 51.79376 | -0.56716 | 5008 ft | 255 kts | 256° |
| 2026-04-14 12:32 | 51.79029 | -0.59514 | 5007 ft | 255 kts | 255° |
| 2026-04-14 12:33 | 51.78651 | -0.62319 | 5002 ft | 255 kts | 253° |
| 2026-04-14 12:33 | 51.78246 | -0.65088 | 4992 ft | 253 kts | 252° |
| 2026-04-14 12:33 | 51.77964 | -0.66915 | 4989 ft | 252 kts | 252° |
| 2026-04-14 12:33 | 51.77401 | -0.70419 | 4987 ft | 250 kts | 252° |
| 2026-04-14 12:34 | 51.76959 | -0.73110 | 4998 ft | 249 kts | 251° |
| 2026-04-14 12:34 | 51.76667 | -0.74885 | 4995 ft | 249 kts | 252° |
| 2026-04-14 12:34 | 51.76141 | -0.77978 | 4979 ft | 249 kts | 247° |
| 2026-04-14 12:34 | 51.75252 | -0.80258 | 4990 ft | 243 kts | 224° |
| 2026-04-14 12:35 | 51.74464 | -0.81537 | 4976 ft | 244 kts | 224° |
| 2026-04-14 12:35 | 51.72921 | -0.84057 | 4981 ft | 244 kts | 224° |
| 2026-04-14 12:35 | 51.72162 | -0.85297 | 4984 ft | 245 kts | 224° |
| 2026-04-14 12:35 | 51.70966 | -0.87239 | 5038 ft | 248 kts | 223° |
| 2026-04-14 12:36 | 51.69383 | -0.89775 | 5954 ft | 252 kts | 224° |
| 2026-04-14 12:36 | 51.68137 | -0.91768 | 6904 ft | 254 kts | 225° |
| 2026-04-14 12:36 | 51.67281 | -0.93139 | 7449 ft | 258 kts | 225° |
| 2026-04-14 12:36 | 51.66182 | -0.94899 | 8188 ft | 260 kts | 225° |
| 2026-04-14 12:37 | 51.64891 | -0.96964 | 9087 ft | 264 kts | 225° |
| 2026-04-14 12:37 | 51.63583 | -0.99058 | 9992 ft | 266 kts | 224° |
| 2026-04-14 12:37 | 51.62252 | -1.01183 | 10621 ft | 279 kts | 225° |
| 2026-04-14 12:37 | 51.60812 | -1.03469 | 10921 ft | 301 kts | 224° |
| 2026-04-14 12:38 | 51.57798 | -1.08243 | 12656 ft | 310 kts | 225° |
| 2026-04-14 12:38 | 51.56284 | -1.10641 | 13477 ft | 314 kts | 225° |
| 2026-04-14 12:38 | 51.54731 | -1.13096 | 14198 ft | 320 kts | 225° |
| 2026-04-14 12:39 | 51.53137 | -1.15616 | 14887 ft | 324 kts | 225° |
| 2026-04-14 12:39 | 51.51406 | -1.17974 | 15548 ft | 331 kts | 213° |
| 2026-04-14 12:39 | 51.49272 | -1.19445 | 16258 ft | 338 kts | 199° |
| 2026-04-14 12:39 | 51.46927 | -1.20134 | 16922 ft | 348 kts | 188° |
| 2026-04-14 12:40 | 51.44521 | -1.20125 | 17519 ft | 359 kts | 176° |
| 2026-04-14 12:40 | 51.42065 | -1.19016 | 18142 ft | 372 kts | 155° |
| 2026-04-14 12:40 | 51.39862 | -1.16806 | 18764 ft | 377 kts | 150° |
| 2026-04-14 12:40 | 51.37871 | -1.14887 | 19221 ft | 382 kts | 151° |
| 2026-04-14 12:41 | 51.35604 | -1.12618 | 19746 ft | 388 kts | 151° |
| 2026-04-14 12:41 | 51.33254 | -1.10445 | 20258 ft | 393 kts | 154° |
| 2026-04-14 12:41 | 51.30807 | -1.08452 | 20795 ft | 397 kts | 157° |
| 2026-04-14 12:41 | 51.28291 | -1.06577 | 21319 ft | 402 kts | 159° |
| 2026-04-14 12:42 | 51.25745 | -1.04735 | 21812 ft | 407 kts | 159° |
| 2026-04-14 12:42 | 51.23148 | -1.02868 | 22311 ft | 413 kts | 159° |
| 2026-04-14 12:42 | 51.20633 | -1.01053 | 22789 ft | 418 kts | 159° |
| 2026-04-14 12:42 | 51.18007 | -0.99152 | 23275 ft | 423 kts | 159° |
| 2026-04-14 12:43 | 51.15390 | -0.97257 | 23738 ft | 428 kts | 159° |
| 2026-04-14 12:43 | 51.12663 | -0.95281 | 24146 ft | 432 kts | 159° |
| 2026-04-14 12:43 | 51.09922 | -0.93295 | 24609 ft | 436 kts | 159° |
| 2026-04-14 12:43 | 51.07140 | -0.91281 | 25043 ft | 440 kts | 159° |
| 2026-04-14 12:44 | 51.04344 | -0.89260 | 25479 ft | 443 kts | 159° |
| 2026-04-14 12:44 | 51.01522 | -0.87223 | 25904 ft | 447 kts | 159° |
| 2026-04-14 12:44 | 50.98780 | -0.85247 | 26306 ft | 450 kts | 159° |
| 2026-04-14 12:45 | 50.93150 | -0.81195 | 27113 ft | 457 kts | 159° |
| 2026-04-14 12:45 | 50.90324 | -0.79165 | 27501 ft | 460 kts | 159° |
| 2026-04-14 12:45 | 50.87316 | -0.77010 | 27903 ft | 463 kts | 159° |
| 2026-04-14 12:45 | 50.84441 | -0.74796 | 28259 ft | 468 kts | 152° |
| 2026-04-14 12:46 | 50.81816 | -0.72252 | 28602 ft | 472 kts | 149° |
| 2026-04-14 12:46 | 50.79058 | -0.69412 | 28988 ft | 475 kts | 148° |
| 2026-04-14 12:46 | 50.76293 | -0.66516 | 29356 ft | 478 kts | 148° |
| 2026-04-14 12:46 | 50.73532 | -0.63630 | 29706 ft | 481 kts | 148° |
| 2026-04-14 12:47 | 50.70763 | -0.60763 | 30046 ft | 484 kts | 148° |
| 2026-04-14 12:47 | 50.67933 | -0.57863 | 30358 ft | 487 kts | 148° |
| 2026-04-14 12:47 | 50.65079 | -0.54962 | 30633 ft | 490 kts | 149° |
| 2026-04-14 12:47 | 50.62248 | -0.52098 | 30864 ft | 493 kts | 148° |
| 2026-04-14 12:48 | 50.59757 | -0.49586 | 31079 ft | 495 kts | 148° |
| 2026-04-14 12:48 | 50.56842 | -0.46652 | 31333 ft | 498 kts | 148° |
| 2026-04-14 12:48 | 50.53914 | -0.43708 | 31599 ft | 501 kts | 148° |
| 2026-04-14 12:48 | 50.50979 | -0.40760 | 31857 ft | 503 kts | 148° |
| 2026-04-14 12:49 | 50.48028 | -0.37798 | 32162 ft | 504 kts | 148° |
| 2026-04-14 12:49 | 50.45117 | -0.34880 | 32556 ft | 503 kts | 148° |
| 2026-04-14 12:49 | 50.42172 | -0.31933 | 32960 ft | 501 kts | 148° |
| 2026-04-14 12:49 | 50.39193 | -0.28956 | 33325 ft | 500 kts | 148° |
| 2026-04-14 12:50 | 50.36296 | -0.26066 | 33642 ft | 501 kts | 148° |
| 2026-04-14 12:50 | 50.30403 | -0.20199 | 34219 ft | 503 kts | 148° |
| 2026-04-14 12:50 | 50.27413 | -0.17228 | 34510 ft | 502 kts | 148° |
| 2026-04-14 12:51 | 50.24505 | -0.14341 | 34830 ft | 501 kts | 149° |
| 2026-04-14 12:51 | 50.21566 | -0.11429 | 35117 ft | 501 kts | 149° |
| 2026-04-14 12:51 | 50.18626 | -0.08517 | 35390 ft | 500 kts | 149° |
| 2026-04-14 12:51 | 50.15689 | -0.05614 | 35708 ft | 499 kts | 149° |
| 2026-04-14 12:52 | 50.13095 | -0.03058 | 35966 ft | 498 kts | 149° |
| 2026-04-14 12:52 | 50.10067 | -0.00437 | 36183 ft | 498 kts | 158° |
| 2026-04-14 12:52 | 50.07268 | 0.01278 | 36139 ft | 501 kts | 167° |
| 2026-04-14 12:53 | 50.00506 | 0.03875 | 36150 ft | 501 kts | 170° |
| 2026-04-14 12:53 | 49.93724 | 0.06390 | 36143 ft | 500 kts | 169° |
| 2026-04-14 12:54 | 49.86978 | 0.08998 | 36151 ft | 499 kts | 169° |
| 2026-04-14 12:54 | 49.80257 | 0.11634 | 36151 ft | 499 kts | 169° |
| 2026-04-14 12:55 | 49.73528 | 0.14263 | 36143 ft | 498 kts | 168° |
| 2026-04-14 12:55 | 49.66815 | 0.16873 | 36158 ft | 497 kts | 168° |
| 2026-04-14 12:56 | 49.60124 | 0.19569 | 36155 ft | 497 kts | 168° |
| 2026-04-14 12:56 | 49.53485 | 0.22275 | 36163 ft | 497 kts | 168° |
| 2026-04-14 12:57 | 49.46799 | 0.24981 | 36148 ft | 497 kts | 168° |
| 2026-04-14 12:57 | 49.40116 | 0.27673 | 36160 ft | 496 kts | 168° |
| 2026-04-14 12:58 | 49.33589 | 0.30295 | 36158 ft | 497 kts | 168° |
| 2026-04-14 12:58 | 49.26855 | 0.33033 | 36149 ft | 497 kts | 167° |
| 2026-04-14 12:59 | 49.20230 | 0.35826 | 36156 ft | 498 kts | 167° |
| 2026-04-14 12:59 | 49.13550 | 0.38648 | 36160 ft | 498 kts | 167° |
| 2026-04-14 13:00 | 49.06938 | 0.41420 | 36139 ft | 499 kts | 167° |
| 2026-04-14 13:00 | 49.00247 | 0.44212 | 36189 ft | 499 kts | 166° |
| 2026-04-14 13:01 | 48.93542 | 0.47002 | 36169 ft | 500 kts | 166° |
| 2026-04-14 13:01 | 48.86824 | 0.49793 | 36163 ft | 501 kts | 166° |
| 2026-04-14 13:02 | 48.80086 | 0.52584 | 36167 ft | 502 kts | 166° |
| 2026-04-14 13:02 | 48.73322 | 0.55291 | 36163 ft | 503 kts | 167° |
| 2026-04-14 13:03 | 48.66603 | 0.57886 | 36165 ft | 503 kts | 167° |
| 2026-04-14 13:03 | 48.59885 | 0.60497 | 36166 ft | 503 kts | 167° |
| 2026-04-14 13:04 | 48.53109 | 0.63138 | 36170 ft | 503 kts | 167° |
| 2026-04-14 13:04 | 48.46339 | 0.65837 | 36169 ft | 503 kts | 166° |
| 2026-04-14 13:05 | 48.39586 | 0.68599 | 36168 ft | 503 kts | 166° |
| 2026-04-14 13:05 | 48.32832 | 0.71349 | 36171 ft | 502 kts | 166° |
| 2026-04-14 13:06 | 48.26137 | 0.74054 | 36174 ft | 501 kts | 166° |
| 2026-04-14 13:06 | 48.19396 | 0.76733 | 36161 ft | 501 kts | 166° |
| 2026-04-14 13:07 | 48.12656 | 0.79368 | 36171 ft | 500 kts | 166° |
| 2026-04-14 13:07 | 48.05928 | 0.82003 | 36172 ft | 500 kts | 166° |
| 2026-04-14 13:08 | 47.99324 | 0.84590 | 36163 ft | 500 kts | 166° |
| 2026-04-14 13:08 | 47.92828 | 0.87132 | 36181 ft | 500 kts | 166° |
| 2026-04-14 13:09 | 47.86093 | 0.89761 | 36180 ft | 501 kts | 166° |
| 2026-04-14 13:09 | 47.79621 | 0.92271 | 36177 ft | 501 kts | 166° |
| 2026-04-14 13:10 | 47.72863 | 0.94876 | 36179 ft | 502 kts | 166° |
| 2026-04-14 13:10 | 47.66093 | 0.97485 | 36184 ft | 502 kts | 166° |
| 2026-04-14 13:11 | 47.59327 | 1.00092 | 36185 ft | 503 kts | 166° |
| 2026-04-14 13:11 | 47.52558 | 1.02695 | 36186 ft | 503 kts | 165° |
| 2026-04-14 13:12 | 47.45791 | 1.05286 | 36193 ft | 503 kts | 166° |
| 2026-04-14 13:12 | 47.38871 | 1.06536 | 36188 ft | 500 kts | 184° |
| 2026-04-14 13:13 | 47.31912 | 1.06251 | 36182 ft | 500 kts | 184° |
| 2026-04-14 13:13 | 47.25004 | 1.05985 | 36192 ft | 501 kts | 184° |
| 2026-04-14 13:14 | 47.17993 | 1.05815 | 36191 ft | 501 kts | 183° |
| 2026-04-14 13:14 | 47.11013 | 1.05675 | 36191 ft | 502 kts | 183° |
| 2026-04-14 13:15 | 47.04075 | 1.05526 | 36195 ft | 502 kts | 183° |
| 2026-04-14 13:15 | 46.97046 | 1.05296 | 36191 ft | 502 kts | 184° |
| 2026-04-14 13:16 | 46.90073 | 1.04961 | 36191 ft | 502 kts | 184° |
| 2026-04-14 13:16 | 46.83088 | 1.04636 | 36191 ft | 502 kts | 184° |
| 2026-04-14 13:17 | 46.76110 | 1.04333 | 36194 ft | 502 kts | 184° |
| 2026-04-14 13:17 | 46.69130 | 1.04036 | 36192 ft | 502 kts | 184° |
| 2026-04-14 13:18 | 46.62143 | 1.03740 | 36194 ft | 502 kts | 184° |
| 2026-04-14 13:18 | 46.55212 | 1.03447 | 36196 ft | 502 kts | 184° |
| 2026-04-14 13:19 | 46.48189 | 1.03191 | 36186 ft | 502 kts | 182° |
| 2026-04-14 13:19 | 46.41209 | 1.03125 | 36194 ft | 502 kts | 182° |
| 2026-04-14 13:20 | 46.34229 | 1.03093 | 36194 ft | 502 kts | 182° |
| 2026-04-14 13:20 | 46.27291 | 1.03038 | 36196 ft | 502 kts | 182° |
| 2026-04-14 13:21 | 46.20310 | 1.02969 | 36190 ft | 502 kts | 182° |
| 2026-04-14 13:21 | 46.13330 | 1.02898 | 36183 ft | 502 kts | 182° |
| 2026-04-14 13:22 | 46.06358 | 1.02829 | 36191 ft | 502 kts | 182° |
| 2026-04-14 13:22 | 45.99379 | 1.02762 | 36189 ft | 502 kts | 182° |
| 2026-04-14 13:23 | 45.92385 | 1.02698 | 36179 ft | 503 kts | 182° |
| 2026-04-14 13:23 | 45.85413 | 1.02633 | 36186 ft | 503 kts | 182° |
| 2026-04-14 13:24 | 45.79604 | 1.02934 | 36173 ft | 504 kts | 171° |
| 2026-04-14 13:24 | 45.69269 | 1.05662 | 36193 ft | 503 kts | 168° |
| 2026-04-14 13:25 | 45.62341 | 1.07517 | 36184 ft | 504 kts | 169° |
| 2026-04-14 13:26 | 45.48575 | 1.11034 | 36181 ft | 504 kts | 169° |
| 2026-04-14 13:26 | 45.41665 | 1.12785 | 36175 ft | 504 kts | 169° |
| 2026-04-14 13:27 | 45.34753 | 1.14537 | 36180 ft | 504 kts | 169° |
| 2026-04-14 13:27 | 45.27850 | 1.16283 | 36210 ft | 504 kts | 169° |
| 2026-04-14 13:28 | 45.20934 | 1.18029 | 36186 ft | 504 kts | 169° |
| 2026-04-14 13:28 | 45.13955 | 1.18799 | 36176 ft | 503 kts | 185° |
| 2026-04-14 13:29 | 45.07107 | 1.17219 | 36184 ft | 500 kts | 193° |
| 2026-04-14 13:29 | 45.00284 | 1.15339 | 36176 ft | 499 kts | 193° |
| 2026-04-14 13:30 | 44.93509 | 1.13542 | 36162 ft | 498 kts | 193° |
| 2026-04-14 13:30 | 44.86689 | 1.11794 | 36175 ft | 499 kts | 193° |
| 2026-04-14 13:31 | 44.79857 | 1.10062 | 36191 ft | 499 kts | 193° |
| 2026-04-14 13:31 | 44.73005 | 1.08327 | 36177 ft | 501 kts | 193° |
| 2026-04-14 13:32 | 44.66183 | 1.06601 | 36187 ft | 502 kts | 193° |
| 2026-04-14 13:32 | 44.59258 | 1.04851 | 36190 ft | 503 kts | 193° |
| 2026-04-14 13:33 | 44.52413 | 1.03126 | 36178 ft | 504 kts | 193° |
| 2026-04-14 13:33 | 44.45506 | 1.01389 | 36193 ft | 504 kts | 193° |
| 2026-04-14 13:34 | 44.35180 | 0.98802 | 36189 ft | 505 kts | 192° |
| 2026-04-14 13:35 | 44.28274 | 0.97077 | 36186 ft | 504 kts | 192° |
| 2026-04-14 13:35 | 44.21369 | 0.95356 | 36195 ft | 504 kts | 192° |
| 2026-04-14 13:36 | 44.14463 | 0.93639 | 36202 ft | 504 kts | 192° |
| 2026-04-14 13:36 | 44.07567 | 0.91929 | 36200 ft | 503 kts | 192° |
| 2026-04-14 13:37 | 44.00677 | 0.90224 | 36207 ft | 503 kts | 192° |
| 2026-04-14 13:37 | 43.93791 | 0.88526 | 36199 ft | 502 kts | 192° |
| 2026-04-14 13:38 | 43.86922 | 0.86823 | 36201 ft | 502 kts | 193° |
| 2026-04-14 13:38 | 43.80069 | 0.84993 | 36201 ft | 501 kts | 193° |
| 2026-04-14 13:39 | 43.73230 | 0.83128 | 36198 ft | 501 kts | 193° |
| 2026-04-14 13:39 | 43.66383 | 0.81282 | 36201 ft | 501 kts | 193° |
| 2026-04-14 13:40 | 43.59534 | 0.79454 | 36206 ft | 501 kts | 193° |
| 2026-04-14 13:40 | 43.52680 | 0.77633 | 36199 ft | 501 kts | 193° |
| 2026-04-14 13:41 | 43.45873 | 0.75828 | 36175 ft | 501 kts | 193° |
| 2026-04-14 13:41 | 43.38977 | 0.74002 | 36193 ft | 502 kts | 193° |
| 2026-04-14 13:42 | 43.32161 | 0.72202 | 36204 ft | 502 kts | 193° |
| 2026-04-14 13:42 | 43.25299 | 0.70393 | 36197 ft | 503 kts | 193° |
| 2026-04-14 13:43 | 43.18443 | 0.68591 | 36195 ft | 504 kts | 193° |
| 2026-04-14 13:43 | 43.11554 | 0.66784 | 36193 ft | 504 kts | 193° |
| 2026-04-14 13:44 | 43.04656 | 0.64980 | 36195 ft | 505 kts | 193° |
| 2026-04-14 13:44 | 42.97755 | 0.63178 | 36167 ft | 505 kts | 193° |
| 2026-04-14 13:45 | 42.90863 | 0.61384 | 36174 ft | 504 kts | 193° |
| 2026-04-14 13:45 | 42.83993 | 0.59600 | 36163 ft | 502 kts | 193° |
| 2026-04-14 13:46 | 42.77145 | 0.57826 | 36147 ft | 500 kts | 193° |
| 2026-04-14 13:46 | 42.70330 | 0.56002 | 36154 ft | 498 kts | 197° |
| 2026-04-14 13:46 | 42.67058 | 0.54554 | 36111 ft | 494 kts | 208° |
| 2026-04-14 13:47 | 42.63954 | 0.52590 | 36137 ft | 490 kts | 210° |
| 2026-04-14 13:47 | 42.57874 | 0.48568 | 36094 ft | 487 kts | 211° |
| 2026-04-14 13:48 | 42.51728 | 0.44558 | 36092 ft | 488 kts | 210° |
| 2026-04-14 13:48 | 42.45590 | 0.40633 | 36090 ft | 487 kts | 210° |
| 2026-04-14 13:49 | 42.39425 | 0.36720 | 36077 ft | 491 kts | 210° |
| 2026-04-14 13:49 | 42.33160 | 0.32747 | 36059 ft | 503 kts | 210° |
| 2026-04-14 13:50 | 42.26797 | 0.28724 | 36042 ft | 506 kts | 210° |
| 2026-04-14 13:50 | 42.20454 | 0.24723 | 36037 ft | 507 kts | 210° |
| 2026-04-14 13:51 | 42.14129 | 0.20741 | 36045 ft | 509 kts | 210° |
| 2026-04-14 13:51 | 42.07683 | 0.16784 | 36029 ft | 511 kts | 204° |
| 2026-04-14 13:52 | 42.00743 | 0.14647 | 36040 ft | 514 kts | 187° |
| 2026-04-14 13:52 | 41.93629 | 0.13683 | 36035 ft | 513 kts | 186° |
| 2026-04-14 13:53 | 41.86545 | 0.12733 | 36034 ft | 511 kts | 187° |
| 2026-04-14 13:53 | 41.79489 | 0.11709 | 36043 ft | 509 kts | 187° |
| 2026-04-14 13:54 | 41.72464 | 0.10655 | 36044 ft | 507 kts | 187° |
| 2026-04-14 13:54 | 41.65463 | 0.09605 | 36049 ft | 506 kts | 187° |
| 2026-04-14 13:55 | 41.58478 | 0.08565 | 36052 ft | 505 kts | 187° |
| 2026-04-14 13:55 | 41.51497 | 0.07529 | 36058 ft | 504 kts | 187° |
| 2026-04-14 13:56 | 41.44533 | 0.06499 | 36063 ft | 504 kts | 187° |
| 2026-04-14 13:56 | 41.37566 | 0.05470 | 36070 ft | 504 kts | 187° |
| 2026-04-14 13:57 | 41.30590 | 0.04443 | 36072 ft | 504 kts | 187° |
| 2026-04-14 13:57 | 41.23657 | 0.03425 | 36083 ft | 505 kts | 187° |
| 2026-04-14 13:58 | 41.16663 | 0.02401 | 36075 ft | 506 kts | 187° |
| 2026-04-14 13:58 | 41.09659 | 0.01375 | 36081 ft | 507 kts | 187° |
| 2026-04-14 13:59 | 41.02639 | 0.00349 | 36084 ft | 508 kts | 187° |
| 2026-04-14 13:59 | 40.95724 | -0.00657 | 36089 ft | 508 kts | 187° |
| 2026-04-14 14:00 | 40.88685 | -0.01675 | 36075 ft | 509 kts | 187° |
| 2026-04-14 14:00 | 40.81652 | -0.02691 | 36087 ft | 509 kts | 187° |
| 2026-04-14 14:01 | 40.74612 | -0.03705 | 36102 ft | 509 kts | 187° |
| 2026-04-14 14:01 | 40.67563 | -0.04718 | 36098 ft | 510 kts | 187° |
| 2026-04-14 14:02 | 40.60513 | -0.05728 | 36094 ft | 509 kts | 187° |
| 2026-04-14 14:02 | 40.53525 | -0.07123 | 36110 ft | 507 kts | 199° |
| 2026-04-14 14:03 | 40.46803 | -0.09840 | 36141 ft | 505 kts | 201° |
| 2026-04-14 14:03 | 40.40101 | -0.12601 | 36147 ft | 505 kts | 200° |
| 2026-04-14 14:04 | 40.33515 | -0.15206 | 36174 ft | 504 kts | 199° |
| 2026-04-14 14:04 | 40.26841 | -0.17816 | 36187 ft | 503 kts | 200° |
| 2026-04-14 14:05 | 40.20139 | -0.20459 | 36170 ft | 504 kts | 199° |
| 2026-04-14 14:05 | 40.13426 | -0.23117 | 36146 ft | 505 kts | 200° |
| 2026-04-14 14:06 | 40.06697 | -0.25770 | 36096 ft | 505 kts | 199° |
| 2026-04-14 14:06 | 40.03329 | -0.27095 | 35928 ft | 507 kts | 199° |
| 2026-04-14 14:06 | 39.99960 | -0.28420 | 35563 ft | 504 kts | 199° |
| 2026-04-14 14:06 | 39.96615 | -0.29719 | 35174 ft | 500 kts | 199° |
| 2026-04-14 14:07 | 39.93283 | -0.30998 | 34795 ft | 497 kts | 199° |
| 2026-04-14 14:07 | 39.89972 | -0.32268 | 34414 ft | 495 kts | 199° |
| 2026-04-14 14:07 | 39.86674 | -0.33540 | 33911 ft | 496 kts | 200° |
| 2026-04-14 14:07 | 39.83371 | -0.34826 | 33425 ft | 494 kts | 200° |
| 2026-04-14 14:08 | 39.80088 | -0.36107 | 33054 ft | 490 kts | 200° |
| 2026-04-14 14:08 | 39.76829 | -0.37378 | 32648 ft | 488 kts | 200° |
| 2026-04-14 14:08 | 39.73586 | -0.38640 | 32260 ft | 485 kts | 200° |
| 2026-04-14 14:08 | 39.70367 | -0.39890 | 31887 ft | 482 kts | 200° |
| 2026-04-14 14:09 | 39.67167 | -0.41131 | 31506 ft | 479 kts | 200° |
| 2026-04-14 14:09 | 39.63990 | -0.42361 | 31151 ft | 475 kts | 200° |
| 2026-04-14 14:09 | 39.60829 | -0.43583 | 30783 ft | 472 kts | 200° |
| 2026-04-14 14:09 | 39.57690 | -0.44795 | 30445 ft | 469 kts | 200° |
| 2026-04-14 14:10 | 39.54567 | -0.46001 | 30094 ft | 467 kts | 200° |
| 2026-04-14 14:10 | 39.51465 | -0.47198 | 29664 ft | 465 kts | 200° |
| 2026-04-14 14:10 | 39.48343 | -0.48261 | 29257 ft | 463 kts | 192° |
| 2026-04-14 14:10 | 39.45169 | -0.48712 | 29096 ft | 455 kts | 184° |
| 2026-04-14 14:11 | 39.42014 | -0.48930 | 28701 ft | 453 kts | 183° |
| 2026-04-14 14:11 | 39.38876 | -0.49117 | 28347 ft | 449 kts | 183° |
| 2026-04-14 14:11 | 39.35770 | -0.49301 | 27964 ft | 447 kts | 183° |
| 2026-04-14 14:11 | 39.32668 | -0.49495 | 27598 ft | 444 kts | 183° |
| 2026-04-14 14:12 | 39.29588 | -0.49700 | 27224 ft | 442 kts | 183° |
| 2026-04-14 14:12 | 39.26568 | -0.49909 | 26856 ft | 440 kts | 183° |
| 2026-04-14 14:12 | 39.23516 | -0.50126 | 26492 ft | 438 kts | 183° |
| 2026-04-14 14:12 | 39.20484 | -0.50344 | 26129 ft | 436 kts | 183° |
| 2026-04-14 14:13 | 39.17462 | -0.50562 | 25765 ft | 434 kts | 183° |
| 2026-04-14 14:13 | 39.14453 | -0.50780 | 25400 ft | 433 kts | 183° |
| 2026-04-14 14:13 | 39.11454 | -0.50997 | 25051 ft | 432 kts | 183° |
| 2026-04-14 14:13 | 39.08466 | -0.51212 | 24680 ft | 431 kts | 182° |
| 2026-04-14 14:14 | 39.05463 | -0.51428 | 24321 ft | 430 kts | 182° |
| 2026-04-14 14:14 | 39.02480 | -0.51642 | 23966 ft | 430 kts | 182° |
| 2026-04-14 14:14 | 39.00461 | -0.51787 | 23708 ft | 429 kts | 182° |
| 2026-04-14 14:14 | 38.97485 | -0.52000 | 23301 ft | 428 kts | 182° |
| 2026-04-14 14:15 | 38.94560 | -0.52209 | 22945 ft | 425 kts | 182° |
| 2026-04-14 14:15 | 38.91618 | -0.52420 | 22574 ft | 422 kts | 182° |
| 2026-04-14 14:15 | 38.88699 | -0.52628 | 22222 ft | 419 kts | 182° |
| 2026-04-14 14:15 | 38.85799 | -0.52835 | 21868 ft | 416 kts | 182° |
| 2026-04-14 14:16 | 38.82913 | -0.53041 | 21518 ft | 414 kts | 182° |
| 2026-04-14 14:16 | 38.80050 | -0.53244 | 21172 ft | 411 kts | 182° |
| 2026-04-14 14:16 | 38.77207 | -0.53447 | 20811 ft | 409 kts | 182° |
| 2026-04-14 14:17 | 38.71553 | -0.53849 | 20094 ft | 404 kts | 182° |
| 2026-04-14 14:17 | 38.68825 | -0.54042 | 19746 ft | 401 kts | 182° |
| 2026-04-14 14:17 | 38.66045 | -0.54240 | 19316 ft | 399 kts | 182° |
| 2026-04-14 14:17 | 38.63279 | -0.54436 | 18960 ft | 396 kts | 183° |
| 2026-04-14 14:18 | 38.60539 | -0.54630 | 18629 ft | 392 kts | 182° |
| 2026-04-14 14:18 | 38.57821 | -0.54822 | 18266 ft | 390 kts | 182° |
| 2026-04-14 14:18 | 38.55127 | -0.55012 | 17888 ft | 387 kts | 182° |
| 2026-04-14 14:18 | 38.52454 | -0.55201 | 17520 ft | 383 kts | 182° |
| 2026-04-14 14:19 | 38.49800 | -0.55388 | 17170 ft | 379 kts | 182° |
| 2026-04-14 14:19 | 38.47210 | -0.55571 | 16845 ft | 375 kts | 183° |
| 2026-04-14 14:19 | 38.44614 | -0.55754 | 16503 ft | 371 kts | 183° |
| 2026-04-14 14:19 | 38.42049 | -0.55934 | 16193 ft | 367 kts | 183° |
| 2026-04-14 14:20 | 38.39509 | -0.56113 | 15867 ft | 365 kts | 183° |
| 2026-04-14 14:20 | 38.36980 | -0.56290 | 15540 ft | 362 kts | 183° |
| 2026-04-14 14:20 | 38.34470 | -0.56466 | 15219 ft | 360 kts | 183° |
| 2026-04-14 14:20 | 38.31979 | -0.56640 | 14910 ft | 358 kts | 183° |
| 2026-04-14 14:21 | 38.29504 | -0.56814 | 14592 ft | 356 kts | 183° |
| 2026-04-14 14:21 | 38.27034 | -0.56987 | 14272 ft | 354 kts | 183° |
| 2026-04-14 14:21 | 38.24584 | -0.57010 | 13974 ft | 351 kts | 178° |
| 2026-04-14 14:21 | 38.22156 | -0.56885 | 13645 ft | 349 kts | 177° |
| 2026-04-14 14:22 | 38.19736 | -0.56735 | 13300 ft | 347 kts | 177° |
| 2026-04-14 14:22 | 38.17331 | -0.56601 | 12970 ft | 344 kts | 178° |
| 2026-04-14 14:22 | 38.14947 | -0.56488 | 12642 ft | 342 kts | 178° |
| 2026-04-14 14:22 | 38.12585 | -0.56384 | 12386 ft | 334 kts | 178° |
| 2026-04-14 14:23 | 38.10322 | -0.56293 | 12242 ft | 319 kts | 179° |
| 2026-04-14 14:23 | 38.08123 | -0.56222 | 11842 ft | 314 kts | 179° |
| 2026-04-14 14:23 | 38.05946 | -0.56154 | 11365 ft | 313 kts | 180° |
| 2026-04-14 14:23 | 38.03796 | -0.56371 | 10880 ft | 308 kts | 201° |
| 2026-04-14 14:24 | 38.01975 | -0.57657 | 10453 ft | 295 kts | 228° |
| 2026-04-14 14:24 | 38.00791 | -0.59661 | 10051 ft | 279 kts | 252° |
| 2026-04-14 14:24 | 38.00315 | -0.61969 | 9569 ft | 265 kts | 273° |
| 2026-04-14 14:24 | 38.00489 | -0.64241 | 9087 ft | 256 kts | 289° |
| 2026-04-14 14:25 | 38.01113 | -0.66281 | 8601 ft | 249 kts | 305° |
| 2026-04-14 14:25 | 38.02203 | -0.67942 | 8168 ft | 244 kts | 316° |
| 2026-04-14 14:25 | 38.03387 | -0.69472 | 7712 ft | 243 kts | 317° |
| 2026-04-14 14:25 | 38.04568 | -0.70989 | 7330 ft | 239 kts | 317° |
| 2026-04-14 14:26 | 38.05683 | -0.72424 | 7256 ft | 218 kts | 317° |
| 2026-04-14 14:26 | 38.06624 | -0.73827 | 7113 ft | 203 kts | 301° |
| 2026-04-14 14:26 | 38.07031 | -0.75558 | 6548 ft | 213 kts | 281° |
| 2026-04-14 14:26 | 38.06924 | -0.77471 | 5906 ft | 224 kts | 261° |
| 2026-04-14 14:27 | 38.06259 | -0.79296 | 5269 ft | 235 kts | 237° |
| 2026-04-14 14:27 | 38.05141 | -0.80734 | 5172 ft | 216 kts | 226° |
| 2026-04-14 14:27 | 38.04066 | -0.81977 | 5188 ft | 204 kts | 228° |
| 2026-04-14 14:27 | 38.03059 | -0.83199 | 5227 ft | 199 kts | 229° |
| 2026-04-14 14:28 | 38.02071 | -0.84442 | 5292 ft | 201 kts | 230° |
| 2026-04-14 14:28 | 38.01074 | -0.85714 | 5301 ft | 205 kts | 231° |
| 2026-04-14 14:28 | 38.00068 | -0.87005 | 5295 ft | 205 kts | 231° |
| 2026-04-14 14:28 | 37.99072 | -0.88285 | 5280 ft | 203 kts | 231° |
| 2026-04-14 14:29 | 37.98091 | -0.89546 | 5261 ft | 201 kts | 231° |
| 2026-04-14 14:29 | 37.97097 | -0.90829 | 5020 ft | 204 kts | 231° |
| 2026-04-14 14:29 | 37.96112 | -0.92098 | 4770 ft | 200 kts | 231° |
| 2026-04-14 14:29 | 37.95146 | -0.93342 | 4498 ft | 196 kts | 230° |
| 2026-04-14 14:30 | 37.94184 | -0.94583 | 4224 ft | 200 kts | 231° |
| 2026-04-14 14:30 | 37.93206 | -0.95840 | 3957 ft | 199 kts | 231° |
| 2026-04-14 14:30 | 37.92236 | -0.97087 | 3688 ft | 198 kts | 229° |
| 2026-04-14 14:30 | 37.91275 | -0.98325 | 3430 ft | 196 kts | 231° |
| 2026-04-14 14:31 | 37.90324 | -0.99554 | 3176 ft | 197 kts | 230° |
| 2026-04-14 14:31 | 37.89382 | -1.00769 | 2899 ft | 187 kts | 229° |
| 2026-04-14 14:31 | 37.88501 | -1.01903 | 2664 ft | 175 kts | 229° |
| 2026-04-14 14:31 | 37.87686 | -1.02955 | 2454 ft | 161 kts | 229° |
| 2026-04-14 14:32 | 37.86919 | -1.03947 | 2246 ft | 157 kts | 227° |
| 2026-04-14 14:32 | 37.86154 | -1.04935 | 2030 ft | 156 kts | 227° |
| 2026-04-14 14:32 | 37.85405 | -1.05901 | 1820 ft | 152 kts | 226° |
| 2026-04-14 14:32 | 37.84667 | -1.06855 | 1628 ft | 153 kts | 226° |
| 2026-04-14 14:33 | 37.83910 | -1.07831 | 1440 ft | 157 kts | 227° |
| 2026-04-14 14:33 | 37.83138 | -1.08827 | 1201 ft | 159 kts | 229° |
| 2026-04-14 14:33 | 37.82366 | -1.09792 | 996 ft | 155 kts | 229° |
| 2026-04-14 14:33 | 37.81610 | -1.10782 | 781 ft | 157 kts | 232° |
| 2026-04-14 14:34 | 37.80211 | -1.12607 | 638 ft | 117 kts | 225° |
| 2026-04-14 14:34 | 37.79764 | -1.13187 | 640 ft | 54 kts | 225° |
| 2026-04-14 14:34 | 37.79546 | -1.13471 | 641 ft | 39 kts | 226° |
| 2026-04-14 14:35 | 37.79432 | -1.13666 | 642 ft | 22 kts | 275° |
| 2026-04-14 14:35 | 37.79533 | -1.13778 | 640 ft | 18 kts | 12° |
| 2026-04-14 14:35 | 37.79622 | -1.13678 | 640 ft | 17 kts | 47° |
| 2026-04-14 14:35 | 37.79704 | -1.13573 | 640 ft | 16 kts | 44° |
| 2026-04-14 14:36 | 37.79781 | -1.13472 | 640 ft | 16 kts | 48° |
| 2026-04-14 14:36 | 37.79857 | -1.13375 | 640 ft | 15 kts | 45° |
| 2026-04-14 14:36 | 37.79931 | -1.13284 | 640 ft | 15 kts | 45° |
| 2026-04-14 14:36 | 37.80001 | -1.13195 | 640 ft | 15 kts | 45° |
| 2026-04-14 14:37 | 37.80076 | -1.13100 | 640 ft | 16 kts | 37° |
| 2026-04-14 14:37 | 37.80168 | -1.13140 | 640 ft | 16 kts | 320° |
| 2026-04-14 14:37 | 37.80260 | -1.13108 | 640 ft | 16 kts | 44° |
| 2026-04-14 14:37 | 37.80332 | -1.13019 | 640 ft | 11 kts | 46° |
| 2026-04-14 14:38 | 37.80383 | -1.13033 | 640 ft | 7 kts | 315° |
| 2026-04-14 14:38 | 37.80400 | -1.13056 | 640 ft | 0 kts | 314° |